sensor_id;sensor_type;location;lat;lon;timestamp;P1;durP1;ratioP1;P2;durP2;ratioP2
72087;SDS011;59961;50.232;8.616;2023-07-20T01:01:38;3.47;;;1.50;;
72087;SDS011;59961;50.232;8.616;2023-07-20T01:04:03;6.40;;;1.88;;
72087;SDS011;59961;50.232;8.616;2023-07-20T01:06:31;5.07;;;1.40;;
72087;SDS011;59961;50.232;8.616;2023-07-20T01:11:36;5.10;;;1.48;;
72087;SDS011;59961;50.232;8.616;2023-07-20T01:14:02;5.20;;;1.70;;
72087;SDS011;59961;50.232;8.616;2023-07-20T01:16:27;5.97;;;1.80;;
72087;SDS011;59961;50.232;8.616;2023-07-20T01:18:53;5.50;;;2.10;;
72087;SDS011;59961;50.232;8.616;2023-07-20T01:21:21;4.28;;;1.77;;
72087;SDS011;59961;50.232;8.616;2023-07-20T01:23:55;4.90;;;1.58;;
72087;SDS011;59961;50.232;8.616;2023-07-20T01:29:34;5.03;;;1.90;;
72087;SDS011;59961;50.232;8.616;2023-07-20T01:32:01;4.57;;;1.45;;
72087;SDS011;59961;50.232;8.616;2023-07-20T01:34:28;5.03;;;1.70;;
72087;SDS011;59961;50.232;8.616;2023-07-20T01:36:54;3.60;;;1.63;;
72087;SDS011;59961;50.232;8.616;2023-07-20T01:39:20;8.53;;;2.20;;
72087;SDS011;59961;50.232;8.616;2023-07-20T01:41:45;5.33;;;1.80;;
72087;SDS011;59961;50.232;8.616;2023-07-20T01:44:12;3.42;;;1.50;;
72087;SDS011;59961;50.232;8.616;2023-07-20T01:46:37;4.78;;;1.73;;
72087;SDS011;59961;50.232;8.616;2023-07-20T01:49:02;7.10;;;2.57;;
72087;SDS011;59961;50.232;8.616;2023-07-20T01:51:27;7.27;;;1.83;;
72087;SDS011;59961;50.232;8.616;2023-07-20T01:53:54;5.10;;;1.60;;
72087;SDS011;59961;50.232;8.616;2023-07-20T01:56:19;3.73;;;1.60;;
72087;SDS011;59961;50.232;8.616;2023-07-20T01:58:45;4.73;;;2.07;;
72087;SDS011;59961;50.232;8.616;2023-07-20T02:01:10;3.67;;;1.80;;
72087;SDS011;59961;50.232;8.616;2023-07-20T02:03:35;5.60;;;1.73;;
72087;SDS011;59961;50.232;8.616;2023-07-20T02:06:00;5.73;;;1.80;;
72087;SDS011;59961;50.232;8.616;2023-07-20T02:08:25;8.37;;;2.03;;
72087;SDS011;59961;50.232;8.616;2023-07-20T02:10:51;6.83;;;2.20;;
72087;SDS011;59961;50.232;8.616;2023-07-20T02:13:17;7.50;;;1.98;;
72087;SDS011;59961;50.232;8.616;2023-07-20T02:15:42;8.83;;;2.67;;
72087;SDS011;59961;50.232;8.616;2023-07-20T02:18:12;6.72;;;2.08;;
72087;SDS011;59961;50.232;8.616;2023-07-20T02:20:37;5.38;;;1.95;;
72087;SDS011;59961;50.232;8.616;2023-07-20T02:23:02;5.35;;;1.85;;
72087;SDS011;59961;50.232;8.616;2023-07-20T02:25:28;5.13;;;1.53;;
72087;SDS011;59961;50.232;8.616;2023-07-20T02:27:53;4.40;;;2.00;;
72087;SDS011;59961;50.232;8.616;2023-07-20T02:30:18;4.80;;;1.80;;
72087;SDS011;59961;50.232;8.616;2023-07-20T02:32:44;6.13;;;1.87;;
72087;SDS011;59961;50.232;8.616;2023-07-20T02:35:10;6.35;;;2.10;;
72087;SDS011;59961;50.232;8.616;2023-07-20T02:37:36;6.70;;;2.20;;
72087;SDS011;59961;50.232;8.616;2023-07-20T02:40:01;5.55;;;2.15;;
72087;SDS011;59961;50.232;8.616;2023-07-20T02:42:29;3.17;;;1.65;;
72087;SDS011;59961;50.232;8.616;2023-07-20T02:44:54;5.80;;;2.03;;
72087;SDS011;59961;50.232;8.616;2023-07-20T02:47:19;3.85;;;1.83;;
72087;SDS011;59961;50.232;8.616;2023-07-20T02:49:44;6.17;;;2.03;;
72087;SDS011;59961;50.232;8.616;2023-07-20T02:52:09;5.43;;;2.30;;
72087;SDS011;59961;50.232;8.616;2023-07-20T02:54:34;5.75;;;1.85;;
72087;SDS011;59961;50.232;8.616;2023-07-20T02:56:59;5.13;;;2.15;;
72087;SDS011;59961;50.232;8.616;2023-07-20T02:59:26;5.53;;;2.10;;
72087;SDS011;59961;50.232;8.616;2023-07-20T03:01:51;5.73;;;1.90;;
72087;SDS011;59961;50.232;8.616;2023-07-20T03:04:16;4.18;;;1.98;;
72087;SDS011;59961;50.232;8.616;2023-07-20T03:06:41;5.80;;;1.70;;
72087;SDS011;59961;50.232;8.616;2023-07-20T03:09:06;6.32;;;2.28;;
72087;SDS011;59961;50.232;8.616;2023-07-20T03:11:38;8.27;;;2.42;;
72087;SDS011;59961;50.232;8.616;2023-07-20T03:14:03;5.37;;;2.47;;
72087;SDS011;59961;50.232;8.616;2023-07-20T03:16:28;5.43;;;2.00;;
72087;SDS011;59961;50.232;8.616;2023-07-20T03:18:57;5.63;;;2.28;;
72087;SDS011;59961;50.232;8.616;2023-07-20T03:21:22;5.95;;;2.05;;
72087;SDS011;59961;50.232;8.616;2023-07-20T03:23:47;6.97;;;2.70;;
72087;SDS011;59961;50.232;8.616;2023-07-20T03:26:13;5.82;;;1.98;;
72087;SDS011;59961;50.232;8.616;2023-07-20T03:28:38;4.03;;;1.80;;
72087;SDS011;59961;50.232;8.616;2023-07-20T03:31:04;5.47;;;2.20;;
72087;SDS011;59961;50.232;8.616;2023-07-20T03:33:29;6.15;;;1.83;;
72087;SDS011;59961;50.232;8.616;2023-07-20T03:35:55;3.47;;;1.80;;
72087;SDS011;59961;50.232;8.616;2023-07-20T03:38:20;5.15;;;2.00;;
72087;SDS011;59961;50.232;8.616;2023-07-20T03:40:53;3.87;;;1.40;;
72087;SDS011;59961;50.232;8.616;2023-07-20T03:43:18;4.88;;;1.83;;
72087;SDS011;59961;50.232;8.616;2023-07-20T03:45:44;5.77;;;1.80;;
72087;SDS011;59961;50.232;8.616;2023-07-20T03:48:10;4.30;;;1.80;;
72087;SDS011;59961;50.232;8.616;2023-07-20T03:50:37;5.10;;;1.67;;
72087;SDS011;59961;50.232;8.616;2023-07-20T03:53:03;3.83;;;1.77;;
72087;SDS011;59961;50.232;8.616;2023-07-20T03:55:28;4.20;;;1.67;;
72087;SDS011;59961;50.232;8.616;2023-07-20T03:57:53;5.87;;;1.80;;
72087;SDS011;59961;50.232;8.616;2023-07-20T04:00:18;5.47;;;1.88;;
72087;SDS011;59961;50.232;8.616;2023-07-20T04:02:43;3.80;;;1.57;;
72087;SDS011;59961;50.232;8.616;2023-07-20T04:05:08;3.47;;;1.50;;
72087;SDS011;59961;50.232;8.616;2023-07-20T04:07:34;3.57;;;1.60;;
72087;SDS011;59961;50.232;8.616;2023-07-20T04:09:59;5.43;;;2.00;;
72087;SDS011;59961;50.232;8.616;2023-07-20T04:12:24;3.20;;;1.40;;
72087;SDS011;59961;50.232;8.616;2023-07-20T04:14:49;2.30;;;1.38;;
72087;SDS011;59961;50.232;8.616;2023-07-20T04:17:14;4.43;;;1.25;;
72087;SDS011;59961;50.232;8.616;2023-07-20T04:19:40;3.85;;;1.63;;
72087;SDS011;59961;50.232;8.616;2023-07-20T04:22:05;4.33;;;1.80;;
72087;SDS011;59961;50.232;8.616;2023-07-20T04:24:30;2.33;;;1.17;;
72087;SDS011;59961;50.232;8.616;2023-07-20T04:26:55;3.38;;;1.55;;
72087;SDS011;59961;50.232;8.616;2023-07-20T04:29:20;4.47;;;1.63;;
72087;SDS011;59961;50.232;8.616;2023-07-20T04:31:45;3.20;;;1.50;;
72087;SDS011;59961;50.232;8.616;2023-07-20T04:34:10;3.57;;;1.50;;
72087;SDS011;59961;50.232;8.616;2023-07-20T04:36:36;5.57;;;2.07;;
72087;SDS011;59961;50.232;8.616;2023-07-20T04:39:01;7.37;;;2.20;;
72087;SDS011;59961;50.232;8.616;2023-07-20T04:41:26;5.43;;;1.80;;
72087;SDS011;59961;50.232;8.616;2023-07-20T04:43:52;4.67;;;1.70;;
72087;SDS011;59961;50.232;8.616;2023-07-20T04:46:17;4.13;;;1.70;;
72087;SDS011;59961;50.232;8.616;2023-07-20T04:48:43;3.30;;;1.63;;
72087;SDS011;59961;50.232;8.616;2023-07-20T04:51:09;3.37;;;1.50;;
72087;SDS011;59961;50.232;8.616;2023-07-20T04:53:35;4.93;;;1.70;;
72087;SDS011;59961;50.232;8.616;2023-07-20T04:56:00;4.88;;;1.48;;
72087;SDS011;59961;50.232;8.616;2023-07-20T04:58:25;3.77;;;1.37;;
72087;SDS011;59961;50.232;8.616;2023-07-20T05:00:51;6.75;;;2.00;;
72087;SDS011;59961;50.232;8.616;2023-07-20T05:03:16;4.67;;;1.67;;
72087;SDS011;59961;50.232;8.616;2023-07-20T05:05:41;5.18;;;1.95;;
72087;SDS011;59961;50.232;8.616;2023-07-20T05:08:06;7.70;;;1.80;;
72087;SDS011;59961;50.232;8.616;2023-07-20T05:10:32;6.50;;;1.70;;
72087;SDS011;59961;50.232;8.616;2023-07-20T05:12:57;5.07;;;1.73;;
72087;SDS011;59961;50.232;8.616;2023-07-20T05:15:22;5.40;;;1.70;;
72087;SDS011;59961;50.232;8.616;2023-07-20T05:17:47;4.88;;;2.05;;
72087;SDS011;59961;50.232;8.616;2023-07-20T05:20:13;5.50;;;1.90;;
72087;SDS011;59961;50.232;8.616;2023-07-20T05:22:39;5.03;;;2.03;;
72087;SDS011;59961;50.232;8.616;2023-07-20T05:25:07;5.43;;;1.70;;
72087;SDS011;59961;50.232;8.616;2023-07-20T05:27:33;3.78;;;1.80;;
72087;SDS011;59961;50.232;8.616;2023-07-20T05:29:58;6.10;;;1.90;;
72087;SDS011;59961;50.232;8.616;2023-07-20T05:32:23;4.27;;;1.70;;
72087;SDS011;59961;50.232;8.616;2023-07-20T05:34:51;4.97;;;1.67;;
72087;SDS011;59961;50.232;8.616;2023-07-20T05:37:16;4.15;;;1.45;;
72087;SDS011;59961;50.232;8.616;2023-07-20T05:39:41;6.30;;;1.77;;
72087;SDS011;59961;50.232;8.616;2023-07-20T05:42:06;6.57;;;1.98;;
72087;SDS011;59961;50.232;8.616;2023-07-20T05:44:31;3.57;;;1.80;;
72087;SDS011;59961;50.232;8.616;2023-07-20T05:46:56;4.97;;;1.90;;
72087;SDS011;59961;50.232;8.616;2023-07-20T05:49:22;4.47;;;2.03;;
72087;SDS011;59961;50.232;8.616;2023-07-20T05:51:47;6.83;;;2.00;;
72087;SDS011;59961;50.232;8.616;2023-07-20T05:54:12;5.50;;;1.97;;
72087;SDS011;59961;50.232;8.616;2023-07-20T05:56:37;3.93;;;1.70;;
72087;SDS011;59961;50.232;8.616;2023-07-20T05:59:03;4.22;;;1.80;;
72087;SDS011;59961;50.232;8.616;2023-07-20T06:01:29;4.72;;;1.90;;
72087;SDS011;59961;50.232;8.616;2023-07-20T06:03:54;7.35;;;2.38;;
72087;SDS011;59961;50.232;8.616;2023-07-20T06:06:19;5.53;;;1.77;;
72087;SDS011;59961;50.232;8.616;2023-07-20T06:08:46;4.15;;;1.92;;
72087;SDS011;59961;50.232;8.616;2023-07-20T06:11:11;6.73;;;2.30;;
72087;SDS011;59961;50.232;8.616;2023-07-20T06:13:36;4.68;;;1.90;;
72087;SDS011;59961;50.232;8.616;2023-07-20T06:16:02;3.60;;;1.53;;
72087;SDS011;59961;50.232;8.616;2023-07-20T06:18:28;4.67;;;1.90;;
72087;SDS011;59961;50.232;8.616;2023-07-20T06:20:53;3.77;;;1.47;;
72087;SDS011;59961;50.232;8.616;2023-07-20T06:23:19;4.17;;;1.70;;
72087;SDS011;59961;50.232;8.616;2023-07-20T06:25:44;5.00;;;1.63;;
72087;SDS011;59961;50.232;8.616;2023-07-20T06:28:09;5.20;;;1.60;;
72087;SDS011;59961;50.232;8.616;2023-07-20T06:30:35;2.97;;;1.40;;
72087;SDS011;59961;50.232;8.616;2023-07-20T06:33:00;9.00;;;1.90;;
72087;SDS011;59961;50.232;8.616;2023-07-20T06:35:25;3.83;;;1.97;;
72087;SDS011;59961;50.232;8.616;2023-07-20T06:37:51;5.80;;;1.80;;
72087;SDS011;59961;50.232;8.616;2023-07-20T06:40:16;4.57;;;2.00;;
72087;SDS011;59961;50.232;8.616;2023-07-20T06:42:41;4.43;;;1.70;;
72087;SDS011;59961;50.232;8.616;2023-07-20T06:45:06;4.37;;;1.80;;
72087;SDS011;59961;50.232;8.616;2023-07-20T06:47:32;5.17;;;1.57;;
72087;SDS011;59961;50.232;8.616;2023-07-20T06:49:57;4.27;;;1.87;;
72087;SDS011;59961;50.232;8.616;2023-07-20T06:52:22;3.95;;;1.60;;
72087;SDS011;59961;50.232;8.616;2023-07-20T06:54:47;3.23;;;1.67;;
72087;SDS011;59961;50.232;8.616;2023-07-20T06:57:12;3.60;;;1.80;;
72087;SDS011;59961;50.232;8.616;2023-07-20T06:59:37;3.45;;;1.80;;
72087;SDS011;59961;50.232;8.616;2023-07-20T07:02:03;4.97;;;2.27;;
72087;SDS011;59961;50.232;8.616;2023-07-20T07:04:28;5.13;;;2.20;;
72087;SDS011;59961;50.232;8.616;2023-07-20T07:06:53;8.70;;;2.53;;
72087;SDS011;59961;50.232;8.616;2023-07-20T07:09:18;3.72;;;1.80;;
72087;SDS011;59961;50.232;8.616;2023-07-20T07:11:43;6.88;;;2.38;;
72087;SDS011;59961;50.232;8.616;2023-07-20T07:14:09;4.57;;;2.37;;
72087;SDS011;59961;50.232;8.616;2023-07-20T07:16:34;5.20;;;2.20;;
72087;SDS011;59961;50.232;8.616;2023-07-20T07:19:02;4.47;;;2.17;;
72087;SDS011;59961;50.232;8.616;2023-07-20T07:21:28;6.30;;;2.45;;
72087;SDS011;59961;50.232;8.616;2023-07-20T07:23:53;3.95;;;2.05;;
72087;SDS011;59961;50.232;8.616;2023-07-20T07:26:22;5.30;;;2.50;;
72087;SDS011;59961;50.232;8.616;2023-07-20T07:28:47;4.90;;;2.05;;
72087;SDS011;59961;50.232;8.616;2023-07-20T07:31:12;4.22;;;2.17;;
72087;SDS011;59961;50.232;8.616;2023-07-20T07:33:37;5.75;;;2.38;;
72087;SDS011;59961;50.232;8.616;2023-07-20T07:36:02;17.10;;;2.60;;
72087;SDS011;59961;50.232;8.616;2023-07-20T07:38:27;6.17;;;2.03;;
72087;SDS011;59961;50.232;8.616;2023-07-20T07:40:53;4.77;;;2.23;;
72087;SDS011;59961;50.232;8.616;2023-07-20T07:43:18;4.73;;;2.00;;
72087;SDS011;59961;50.232;8.616;2023-07-20T07:45:43;4.53;;;2.00;;
72087;SDS011;59961;50.232;8.616;2023-07-20T07:48:08;5.77;;;2.37;;
72087;SDS011;59961;50.232;8.616;2023-07-20T07:50:36;6.78;;;1.88;;
72087;SDS011;59961;50.232;8.616;2023-07-20T07:53:01;4.23;;;1.93;;
72087;SDS011;59961;50.232;8.616;2023-07-20T07:55:26;3.85;;;2.30;;
72087;SDS011;59961;50.232;8.616;2023-07-20T07:57:51;6.47;;;1.92;;
72087;SDS011;59961;50.232;8.616;2023-07-20T08:00:17;6.63;;;2.30;;
72087;SDS011;59961;50.232;8.616;2023-07-20T08:02:44;6.82;;;1.92;;
72087;SDS011;59961;50.232;8.616;2023-07-20T08:05:09;7.97;;;2.20;;
72087;SDS011;59961;50.232;8.616;2023-07-20T08:07:35;5.40;;;2.03;;
72087;SDS011;59961;50.232;8.616;2023-07-20T08:10:00;5.03;;;1.63;;
72087;SDS011;59961;50.232;8.616;2023-07-20T08:12:25;4.27;;;1.60;;
72087;SDS011;59961;50.232;8.616;2023-07-20T08:14:51;4.37;;;1.63;;
72087;SDS011;59961;50.232;8.616;2023-07-20T08:17:16;5.30;;;1.77;;
72087;SDS011;59961;50.232;8.616;2023-07-20T08:19:41;4.72;;;2.05;;
72087;SDS011;59961;50.232;8.616;2023-07-20T08:22:07;4.53;;;1.80;;
72087;SDS011;59961;50.232;8.616;2023-07-20T08:24:32;5.50;;;1.57;;
72087;SDS011;59961;50.232;8.616;2023-07-20T08:26:58;4.93;;;1.90;;
72087;SDS011;59961;50.232;8.616;2023-07-20T08:29:23;7.77;;;1.90;;
72087;SDS011;59961;50.232;8.616;2023-07-20T08:31:48;6.50;;;1.90;;
72087;SDS011;59961;50.232;8.616;2023-07-20T08:34:14;4.50;;;2.17;;
72087;SDS011;59961;50.232;8.616;2023-07-20T08:36:39;4.87;;;1.90;;
72087;SDS011;59961;50.232;8.616;2023-07-20T08:39:04;5.22;;;1.65;;
72087;SDS011;59961;50.232;8.616;2023-07-20T08:41:29;7.57;;;2.00;;
72087;SDS011;59961;50.232;8.616;2023-07-20T08:43:54;7.07;;;1.80;;
72087;SDS011;59961;50.232;8.616;2023-07-20T08:46:20;6.50;;;2.42;;
72087;SDS011;59961;50.232;8.616;2023-07-20T08:48:45;5.87;;;1.87;;
72087;SDS011;59961;50.232;8.616;2023-07-20T08:51:10;4.40;;;1.90;;
72087;SDS011;59961;50.232;8.616;2023-07-20T08:53:37;5.55;;;2.03;;
72087;SDS011;59961;50.232;8.616;2023-07-20T08:56:03;6.30;;;1.90;;
72087;SDS011;59961;50.232;8.616;2023-07-20T08:58:29;4.23;;;1.90;;
72087;SDS011;59961;50.232;8.616;2023-07-20T09:00:54;4.13;;;1.80;;
72087;SDS011;59961;50.232;8.616;2023-07-20T09:03:20;8.63;;;2.00;;
72087;SDS011;59961;50.232;8.616;2023-07-20T09:05:46;6.03;;;2.10;;
72087;SDS011;59961;50.232;8.616;2023-07-20T09:08:11;4.50;;;1.43;;
72087;SDS011;59961;50.232;8.616;2023-07-20T09:10:36;7.70;;;2.17;;
72087;SDS011;59961;50.232;8.616;2023-07-20T09:13:01;3.40;;;1.70;;
72087;SDS011;59961;50.232;8.616;2023-07-20T09:15:28;5.30;;;2.27;;
72087;SDS011;59961;50.232;8.616;2023-07-20T09:17:53;5.20;;;2.10;;
72087;SDS011;59961;50.232;8.616;2023-07-20T09:20:19;6.55;;;2.42;;
72087;SDS011;59961;50.232;8.616;2023-07-20T09:22:45;3.93;;;1.50;;
72087;SDS011;59961;50.232;8.616;2023-07-20T09:25:13;7.23;;;1.83;;
72087;SDS011;59961;50.232;8.616;2023-07-20T09:27:40;3.30;;;1.23;;
72087;SDS011;59961;50.232;8.616;2023-07-20T09:30:05;5.43;;;2.00;;
72087;SDS011;59961;50.232;8.616;2023-07-20T09:32:39;3.85;;;2.00;;
72087;SDS011;59961;50.232;8.616;2023-07-20T09:35:05;4.47;;;2.00;;
72087;SDS011;59961;50.232;8.616;2023-07-20T09:37:30;4.00;;;1.67;;
72087;SDS011;59961;50.232;8.616;2023-07-20T09:39:57;5.05;;;1.80;;
72087;SDS011;59961;50.232;8.616;2023-07-20T09:42:23;4.00;;;1.80;;
72087;SDS011;59961;50.232;8.616;2023-07-20T09:44:50;4.07;;;1.73;;
72087;SDS011;59961;50.232;8.616;2023-07-20T09:47:21;5.50;;;1.80;;
72087;SDS011;59961;50.232;8.616;2023-07-20T09:49:46;7.60;;;1.98;;
72087;SDS011;59961;50.232;8.616;2023-07-20T09:52:11;4.25;;;1.58;;
72087;SDS011;59961;50.232;8.616;2023-07-20T09:54:40;5.10;;;1.90;;
72087;SDS011;59961;50.232;8.616;2023-07-20T09:57:08;3.50;;;1.50;;
72087;SDS011;59961;50.232;8.616;2023-07-20T09:59:33;6.60;;;1.53;;
72087;SDS011;59961;50.232;8.616;2023-07-20T10:01:59;3.73;;;1.60;;
72087;SDS011;59961;50.232;8.616;2023-07-20T10:04:26;3.45;;;1.30;;
72087;SDS011;59961;50.232;8.616;2023-07-20T10:06:53;2.85;;;1.58;;
72087;SDS011;59961;50.232;8.616;2023-07-20T10:09:19;3.83;;;1.67;;
72087;SDS011;59961;50.232;8.616;2023-07-20T10:11:48;3.33;;;1.55;;
72087;SDS011;59961;50.232;8.616;2023-07-20T10:14:14;5.53;;;1.73;;
72087;SDS011;59961;50.232;8.616;2023-07-20T10:16:43;6.03;;;1.75;;
72087;SDS011;59961;50.232;8.616;2023-07-20T10:19:22;3.58;;;1.40;;
72087;SDS011;59961;50.232;8.616;2023-07-20T10:21:51;2.95;;;1.50;;
72087;SDS011;59961;50.232;8.616;2023-07-20T10:24:19;3.83;;;1.73;;
72087;SDS011;59961;50.232;8.616;2023-07-20T10:26:45;3.43;;;1.43;;
72087;SDS011;59961;50.232;8.616;2023-07-20T10:29:10;3.43;;;1.67;;
72087;SDS011;59961;50.232;8.616;2023-07-20T10:31:37;2.80;;;1.40;;
72087;SDS011;59961;50.232;8.616;2023-07-20T10:34:02;3.15;;;1.40;;
72087;SDS011;59961;50.232;8.616;2023-07-20T10:36:28;3.27;;;1.40;;
72087;SDS011;59961;50.232;8.616;2023-07-20T10:38:54;3.90;;;1.57;;
72087;SDS011;59961;50.232;8.616;2023-07-20T10:41:20;4.60;;;1.25;;
72087;SDS011;59961;50.232;8.616;2023-07-20T10:43:46;6.50;;;1.60;;
72087;SDS011;59961;50.232;8.616;2023-07-20T10:46:14;3.95;;;1.50;;
72087;SDS011;59961;50.232;8.616;2023-07-20T10:48:58;3.30;;;1.47;;
72087;SDS011;59961;50.232;8.616;2023-07-20T10:51:24;3.42;;;1.40;;
72087;SDS011;59961;50.232;8.616;2023-07-20T10:53:49;4.10;;;1.80;;
72087;SDS011;59961;50.232;8.616;2023-07-20T10:56:20;4.90;;;1.70;;
72087;SDS011;59961;50.232;8.616;2023-07-20T10:58:46;5.25;;;1.52;;
72087;SDS011;59961;50.232;8.616;2023-07-20T11:01:14;4.13;;;1.65;;
72087;SDS011;59961;50.232;8.616;2023-07-20T11:03:40;4.80;;;1.57;;
72087;SDS011;59961;50.232;8.616;2023-07-20T11:08:50;5.03;;;1.52;;
72087;SDS011;59961;50.232;8.616;2023-07-20T11:11:26;3.53;;;1.58;;
72087;SDS011;59961;50.232;8.616;2023-07-20T11:16:20;2.55;;;1.30;;
72087;SDS011;59961;50.232;8.616;2023-07-20T11:18:56;4.23;;;1.80;;
72087;SDS011;59961;50.232;8.616;2023-07-20T11:21:22;1.90;;;1.10;;
72087;SDS011;59961;50.232;8.616;2023-07-20T11:23:47;3.43;;;1.60;;
72087;SDS011;59961;50.232;8.616;2023-07-20T11:26:13;3.00;;;1.30;;
72087;SDS011;59961;50.232;8.616;2023-07-20T11:28:38;5.73;;;1.40;;
72087;SDS011;59961;50.232;8.616;2023-07-20T11:31:04;6.20;;;1.40;;
72087;SDS011;59961;50.232;8.616;2023-07-20T11:33:29;4.38;;;1.48;;
72087;SDS011;59961;50.232;8.616;2023-07-20T11:35:54;5.60;;;1.60;;
72087;SDS011;59961;50.232;8.616;2023-07-20T11:38:19;4.27;;;1.40;;
72087;SDS011;59961;50.232;8.616;2023-07-20T11:40:45;3.43;;;1.30;;
72087;SDS011;59961;50.232;8.616;2023-07-20T11:43:11;4.97;;;1.30;;
72087;SDS011;59961;50.232;8.616;2023-07-20T11:45:37;3.50;;;1.40;;
72087;SDS011;59961;50.232;8.616;2023-07-20T11:48:02;3.28;;;1.33;;
72087;SDS011;59961;50.232;8.616;2023-07-20T11:50:27;4.65;;;1.90;;
72087;SDS011;59961;50.232;8.616;2023-07-20T11:52:52;5.07;;;1.60;;
72087;SDS011;59961;50.232;8.616;2023-07-20T11:55:18;2.37;;;1.13;;
72087;SDS011;59961;50.232;8.616;2023-07-20T11:58:00;3.80;;;1.05;;
72087;SDS011;59961;50.232;8.616;2023-07-20T12:00:25;3.90;;;1.17;;
72087;SDS011;59961;50.232;8.616;2023-07-20T12:02:50;3.50;;;1.00;;
72087;SDS011;59961;50.232;8.616;2023-07-20T12:05:15;4.27;;;0.97;;
72087;SDS011;59961;50.232;8.616;2023-07-20T12:07:41;3.03;;;0.93;;
72087;SDS011;59961;50.232;8.616;2023-07-20T12:10:07;2.03;;;0.80;;
72087;SDS011;59961;50.232;8.616;2023-07-20T12:12:42;2.63;;;1.35;;
72087;SDS011;59961;50.232;8.616;2023-07-20T12:15:17;5.38;;;1.40;;
72087;SDS011;59961;50.232;8.616;2023-07-20T12:17:44;2.40;;;0.97;;
72087;SDS011;59961;50.232;8.616;2023-07-20T12:20:10;2.28;;;1.08;;
72087;SDS011;59961;50.232;8.616;2023-07-20T12:22:43;2.93;;;1.30;;
72087;SDS011;59961;50.232;8.616;2023-07-20T12:25:08;2.50;;;0.82;;
72087;SDS011;59961;50.232;8.616;2023-07-20T12:27:35;2.50;;;1.03;;
72087;SDS011;59961;50.232;8.616;2023-07-20T12:30:01;3.22;;;0.95;;
72087;SDS011;59961;50.232;8.616;2023-07-20T12:32:27;3.00;;;0.95;;
72087;SDS011;59961;50.232;8.616;2023-07-20T12:34:52;2.88;;;1.40;;
72087;SDS011;59961;50.232;8.616;2023-07-20T12:37:18;3.77;;;1.23;;
72087;SDS011;59961;50.232;8.616;2023-07-20T12:39:43;4.13;;;1.43;;
72087;SDS011;59961;50.232;8.616;2023-07-20T12:42:12;3.53;;;1.30;;
72087;SDS011;59961;50.232;8.616;2023-07-20T12:44:37;1.83;;;1.10;;
72087;SDS011;59961;50.232;8.616;2023-07-20T12:47:02;3.20;;;1.10;;
72087;SDS011;59961;50.232;8.616;2023-07-20T12:49:27;3.23;;;1.07;;
72087;SDS011;59961;50.232;8.616;2023-07-20T12:51:53;2.25;;;0.80;;
72087;SDS011;59961;50.232;8.616;2023-07-20T12:54:18;1.70;;;1.10;;
72087;SDS011;59961;50.232;8.616;2023-07-20T12:56:43;2.65;;;0.88;;
72087;SDS011;59961;50.232;8.616;2023-07-20T12:59:08;1.90;;;1.20;;
72087;SDS011;59961;50.232;8.616;2023-07-20T13:01:34;3.75;;;1.10;;
72087;SDS011;59961;50.232;8.616;2023-07-20T13:03:59;2.35;;;1.15;;
72087;SDS011;59961;50.232;8.616;2023-07-20T13:06:24;3.70;;;1.40;;
72087;SDS011;59961;50.232;8.616;2023-07-20T13:08:49;4.17;;;1.20;;
72087;SDS011;59961;50.232;8.616;2023-07-20T13:11:15;4.03;;;1.20;;
72087;SDS011;59961;50.232;8.616;2023-07-20T13:13:41;2.63;;;1.08;;
72087;SDS011;59961;50.232;8.616;2023-07-20T13:16:06;2.83;;;0.90;;
72087;SDS011;59961;50.232;8.616;2023-07-20T13:18:31;1.77;;;0.87;;
72087;SDS011;59961;50.232;8.616;2023-07-20T13:20:56;1.67;;;0.90;;
72087;SDS011;59961;50.232;8.616;2023-07-20T13:23:22;4.13;;;0.90;;
72087;SDS011;59961;50.232;8.616;2023-07-20T13:25:47;3.07;;;1.10;;
72087;SDS011;59961;50.232;8.616;2023-07-20T13:28:12;2.43;;;1.20;;
72087;SDS011;59961;50.232;8.616;2023-07-20T13:30:37;1.83;;;1.10;;
72087;SDS011;59961;50.232;8.616;2023-07-20T13:33:02;2.10;;;1.23;;
72087;SDS011;59961;50.232;8.616;2023-07-20T13:35:28;3.13;;;1.20;;
72087;SDS011;59961;50.232;8.616;2023-07-20T13:37:53;1.97;;;1.10;;
72087;SDS011;59961;50.232;8.616;2023-07-20T13:40:18;1.53;;;1.17;;
72087;SDS011;59961;50.232;8.616;2023-07-20T13:42:44;1.63;;;1.05;;
72087;SDS011;59961;50.232;8.616;2023-07-20T13:45:10;2.13;;;1.07;;
72087;SDS011;59961;50.232;8.616;2023-07-20T13:47:35;2.53;;;1.30;;
72087;SDS011;59961;50.232;8.616;2023-07-20T13:50:00;1.40;;;0.90;;
72087;SDS011;59961;50.232;8.616;2023-07-20T13:52:26;3.17;;;1.10;;
72087;SDS011;59961;50.232;8.616;2023-07-20T13:54:51;4.13;;;1.30;;
72087;SDS011;59961;50.232;8.616;2023-07-20T13:57:16;3.50;;;1.17;;
72087;SDS011;59961;50.232;8.616;2023-07-20T13:59:41;2.97;;;1.20;;
72087;SDS011;59961;50.232;8.616;2023-07-20T14:02:06;2.73;;;1.60;;
72087;SDS011;59961;50.232;8.616;2023-07-20T14:04:31;4.55;;;1.17;;
72087;SDS011;59961;50.232;8.616;2023-07-20T14:06:57;2.20;;;0.90;;
72087;SDS011;59961;50.232;8.616;2023-07-20T14:09:22;2.60;;;1.23;;
72087;SDS011;59961;50.232;8.616;2023-07-20T14:11:48;2.30;;;1.10;;
72087;SDS011;59961;50.232;8.616;2023-07-20T14:14:13;2.08;;;1.25;;
72087;SDS011;59961;50.232;8.616;2023-07-20T14:16:38;2.75;;;1.30;;
72087;SDS011;59961;50.232;8.616;2023-07-20T14:19:03;3.85;;;1.20;;
72087;SDS011;59961;50.232;8.616;2023-07-20T14:21:30;3.80;;;1.47;;
72087;SDS011;59961;50.232;8.616;2023-07-20T14:23:56;2.40;;;1.30;;
72087;SDS011;59961;50.232;8.616;2023-07-20T14:26:22;3.35;;;1.40;;
72087;SDS011;59961;50.232;8.616;2023-07-20T14:28:48;3.03;;;1.30;;
72087;SDS011;59961;50.232;8.616;2023-07-20T14:31:13;3.30;;;1.33;;
72087;SDS011;59961;50.232;8.616;2023-07-20T14:33:38;2.20;;;1.33;;
72087;SDS011;59961;50.232;8.616;2023-07-20T14:36:04;3.55;;;1.15;;
72087;SDS011;59961;50.232;8.616;2023-07-20T14:38:30;3.57;;;1.30;;
72087;SDS011;59961;50.232;8.616;2023-07-20T14:40:55;2.22;;;1.20;;
72087;SDS011;59961;50.232;8.616;2023-07-20T14:43:20;4.23;;;1.17;;
72087;SDS011;59961;50.232;8.616;2023-07-20T14:45:46;3.10;;;1.00;;
72087;SDS011;59961;50.232;8.616;2023-07-20T14:48:11;4.60;;;1.00;;
72087;SDS011;59961;50.232;8.616;2023-07-20T14:50:36;3.80;;;1.33;;
72087;SDS011;59961;50.232;8.616;2023-07-20T14:53:01;3.03;;;1.50;;
72087;SDS011;59961;50.232;8.616;2023-07-20T14:55:26;2.40;;;1.40;;
72087;SDS011;59961;50.232;8.616;2023-07-20T14:57:52;4.53;;;1.57;;
72087;SDS011;59961;50.232;8.616;2023-07-20T15:00:17;2.57;;;1.20;;
72087;SDS011;59961;50.232;8.616;2023-07-20T15:02:42;2.60;;;1.30;;
72087;SDS011;59961;50.232;8.616;2023-07-20T15:05:09;3.95;;;1.23;;
72087;SDS011;59961;50.232;8.616;2023-07-20T15:07:34;2.83;;;1.50;;
72087;SDS011;59961;50.232;8.616;2023-07-20T15:09:59;2.77;;;1.20;;
72087;SDS011;59961;50.232;8.616;2023-07-20T15:12:25;2.70;;;1.20;;
72087;SDS011;59961;50.232;8.616;2023-07-20T15:15:11;2.20;;;1.40;;
72087;SDS011;59961;50.232;8.616;2023-07-20T15:17:36;3.00;;;1.50;;
72087;SDS011;59961;50.232;8.616;2023-07-20T15:20:02;3.85;;;1.60;;
72087;SDS011;59961;50.232;8.616;2023-07-20T15:22:29;3.30;;;1.13;;
72087;SDS011;59961;50.232;8.616;2023-07-20T15:24:54;4.50;;;1.60;;
72087;SDS011;59961;50.232;8.616;2023-07-20T15:27:20;2.80;;;1.50;;
72087;SDS011;59961;50.232;8.616;2023-07-20T15:29:45;3.42;;;1.60;;
72087;SDS011;59961;50.232;8.616;2023-07-20T15:32:11;1.87;;;1.13;;
72087;SDS011;59961;50.232;8.616;2023-07-20T15:34:36;3.00;;;1.20;;
72087;SDS011;59961;50.232;8.616;2023-07-20T15:37:02;1.83;;;1.03;;
72087;SDS011;59961;50.232;8.616;2023-07-20T15:39:28;2.67;;;1.35;;
72087;SDS011;59961;50.232;8.616;2023-07-20T15:41:53;1.77;;;0.97;;
72087;SDS011;59961;50.232;8.616;2023-07-20T15:44:18;5.15;;;1.17;;
72087;SDS011;59961;50.232;8.616;2023-07-20T15:46:44;2.43;;;1.10;;
72087;SDS011;59961;50.232;8.616;2023-07-20T15:49:10;5.72;;;1.25;;
72087;SDS011;59961;50.232;8.616;2023-07-20T15:51:35;3.10;;;1.40;;